createdAt,value
2023-01-30T00:00:35.488Z,64.09
2023-01-30T00:01:35.462Z,64.29
2023-01-30T00:02:35.475Z,64.19
2023-01-30T00:03:35.617Z,63.88
2023-01-30T00:04:35.473Z,63.78
2023-01-30T00:05:35.410Z,63.88
2023-01-30T00:06:35.422Z,64.09
2023-01-30T00:07:35.401Z,64.19
2023-01-30T00:08:36.403Z,64.29
2023-01-30T00:09:35.637Z,64.51
2023-01-30T00:10:36.370Z,65.06
2023-01-30T00:11:35.366Z,65.37
2023-01-30T00:12:35.368Z,64.53
2023-01-30T00:13:35.352Z,65.30
2023-01-30T00:14:35.314Z,65.19
2023-01-30T00:15:35.331Z,65.64
2023-01-30T00:16:36.396Z,65.71
2023-01-30T00:17:35.316Z,65.81
2023-01-30T00:18:35.300Z,65.19
2023-01-30T00:19:36.261Z,65.16
2023-01-30T00:20:35.253Z,65.16
2023-01-30T00:21:35.278Z,65.19
2023-01-30T00:22:35.235Z,65.30
2023-01-30T00:23:35.241Z,65.16
2023-01-30T00:24:35.310Z,65.16
2023-01-30T00:25:35.378Z,64.53
2023-01-30T00:26:36.243Z,64.53
2023-01-30T00:27:36.203Z,64.19
2023-01-30T00:28:35.189Z,64.01
2023-01-30T00:29:35.165Z,64.92
2023-01-30T00:30:35.203Z,65.03
2023-01-30T00:31:35.181Z,64.85
2023-01-30T00:32:36.126Z,65.34
2023-01-30T00:33:35.134Z,65.06
2023-01-30T00:34:35.099Z,65.06
2023-01-30T00:35:35.115Z,64.61
2023-01-30T00:36:35.117Z,64.51
2023-01-30T00:37:36.077Z,64.29
2023-01-30T00:38:36.064Z,65.13
2023-01-30T00:39:35.074Z,65.23
2023-01-30T00:40:35.055Z,65.23
2023-01-30T00:41:35.038Z,64.09
2023-01-30T00:42:35.048Z,64.19
2023-01-30T00:43:34.998Z,64.17
2023-01-30T00:44:35.018Z,65.03
2023-01-30T00:45:35.008Z,65.23
2023-01-30T00:46:35.059Z,65.13
2023-01-30T00:47:34.975Z,65.68
2023-01-30T00:48:34.976Z,65.55
2023-01-30T00:49:34.961Z,65.86
2023-01-30T00:50:34.923Z,65.55
2023-01-30T00:51:35.955Z,65.34
2023-01-30T00:52:34.938Z,65.44
2023-01-30T00:53:34.922Z,65.65
2023-01-30T00:54:35.896Z,65.44
2023-01-30T00:55:34.890Z,65.65
2023-01-30T00:56:35.047Z,65.20
2023-01-30T00:57:34.874Z,65.20
2023-01-30T00:58:35.854Z,65.65
2023-01-30T00:59:34.861Z,65.55
2023-01-30T01:00:34.827Z,65.65
2023-01-30T01:01:34.863Z,65.86
2023-01-30T01:02:35.839Z,65.65
2023-01-30T01:03:35.822Z,66.27
2023-01-30T01:04:34.789Z,66.27
2023-01-30T01:05:35.769Z,65.75
2023-01-30T01:06:35.781Z,65.86
2023-01-30T01:07:35.749Z,66.27
2023-01-30T01:08:34.754Z,66.27
2023-01-30T01:09:34.732Z,66.38
2023-01-30T01:10:34.758Z,66.38
2023-01-30T01:11:34.751Z,65.89
2023-01-30T01:12:34.728Z,66.51
2023-01-30T01:13:34.701Z,66.51
2023-01-30T01:14:35.691Z,66.83
2023-01-30T01:15:34.677Z,66.90
2023-01-30T01:16:34.902Z,66.59
2023-01-30T01:17:34.669Z,65.86
2023-01-30T01:18:35.634Z,65.86
2023-01-30T01:19:34.627Z,66.38
2023-01-30T01:20:34.601Z,66.59
2023-01-30T01:21:34.591Z,66.69
2023-01-30T01:22:35.641Z,66.17
2023-01-30T01:23:34.587Z,66.48
2023-01-30T01:24:34.572Z,66.48
2023-01-30T01:25:34.585Z,66.38
2023-01-30T01:26:35.578Z,66.48
2023-01-30T01:27:34.588Z,66.87
2023-01-30T01:28:34.554Z,67.80
2023-01-30T01:29:35.529Z,67.70
2023-01-30T01:30:34.501Z,66.66
2023-01-30T01:31:35.584Z,67.83
2023-01-30T01:32:34.490Z,68.35
2023-01-30T01:33:35.536Z,67.11
2023-01-30T01:34:34.464Z,67.91
2023-01-30T01:35:34.477Z,67.00
2023-01-30T01:36:53.979Z,67.70
2023-01-30T01:37:35.453Z,67.63
2023-01-30T01:38:34.435Z,68.12
2023-01-30T01:39:34.435Z,67.70
2023-01-30T01:40:35.426Z,67.80
2023-01-30T01:41:34.411Z,68.01
2023-01-30T01:42:34.381Z,67.80
2023-01-30T01:43:34.371Z,67.49
2023-01-30T01:44:34.365Z,67.91
2023-01-30T01:45:34.465Z,67.60
2023-01-30T01:46:34.398Z,68.32
2023-01-30T01:47:34.340Z,67.80
2023-01-30T01:48:34.303Z,67.91
2023-01-30T01:49:34.306Z,67.77
2023-01-30T01:50:34.326Z,67.91
2023-01-30T01:51:34.293Z,67.88
2023-01-30T01:52:34.303Z,67.91
2023-01-30T01:53:34.282Z,68.40
2023-01-30T01:54:34.282Z,67.36
2023-01-30T01:55:34.224Z,67.98
2023-01-30T01:56:34.237Z,67.64
2023-01-30T01:57:34.267Z,67.64
2023-01-30T01:58:35.204Z,67.12
2023-01-30T01:59:35.213Z,67.74
2023-01-30T02:00:34.196Z,67.33
2023-01-30T02:01:34.159Z,66.67
2023-01-30T02:02:34.197Z,66.57
2023-01-30T02:03:34.166Z,67.64
2023-01-30T02:04:34.170Z,67.33
2023-01-30T02:05:34.156Z,67.02
2023-01-30T02:06:34.151Z,67.95
2023-01-30T02:07:35.104Z,67.95
2023-01-30T02:08:34.115Z,68.16
2023-01-30T02:09:34.101Z,67.95
2023-01-30T02:10:34.078Z,67.74
2023-01-30T02:11:34.138Z,67.95
2023-01-30T02:12:34.096Z,67.43
2023-01-30T02:13:34.045Z,67.92
2023-01-30T02:14:34.028Z,67.40
2023-01-30T02:15:35.034Z,67.64
2023-01-30T02:16:34.026Z,67.61
2023-01-30T02:17:34.045Z,67.30
2023-01-30T02:18:34.041Z,66.88
2023-01-30T02:19:34.978Z,66.64
2023-01-30T02:20:33.974Z,66.64
2023-01-30T02:21:34.064Z,66.96
2023-01-30T02:22:34.957Z,66.33
2023-01-30T02:23:33.968Z,66.54
2023-01-30T02:24:33.973Z,66.33
2023-01-30T02:25:33.918Z,66.44
2023-01-30T02:26:33.959Z,66.54
2023-01-30T02:27:33.918Z,66.64
2023-01-30T02:28:33.892Z,66.85
2023-01-30T02:29:33.880Z,66.96
2023-01-30T02:30:33.907Z,66.85
2023-01-30T02:31:34.023Z,66.54
2023-01-30T02:32:33.907Z,66.57
2023-01-30T02:33:33.833Z,66.75
2023-01-30T02:34:33.846Z,67.19
2023-01-30T02:35:33.807Z,67.19
2023-01-30T02:36:33.808Z,67.40
2023-01-30T02:37:33.798Z,67.19
2023-01-30T02:38:33.782Z,67.19
2023-01-30T02:39:33.778Z,66.99
2023-01-30T02:40:34.773Z,67.61
2023-01-30T02:41:33.745Z,67.09
2023-01-30T02:42:34.750Z,67.92
2023-01-30T02:43:34.743Z,67.89
2023-01-30T02:44:33.716Z,67.79
2023-01-30T02:45:33.720Z,68.02
2023-01-30T02:46:34.697Z,68.41
2023-01-30T02:47:34.706Z,68.10
2023-01-30T02:48:33.671Z,68.33
2023-01-30T02:49:33.663Z,68.54
2023-01-30T02:50:33.645Z,68.54
2023-01-30T02:51:33.636Z,68.30
2023-01-30T02:52:33.650Z,67.89
2023-01-30T02:53:33.631Z,68.10
2023-01-30T02:54:33.595Z,67.99
2023-01-30T02:55:33.612Z,67.65
2023-01-30T02:56:34.587Z,68.10
2023-01-30T02:57:33.639Z,67.79
2023-01-30T02:58:33.572Z,67.89
2023-01-30T02:59:33.554Z,67.99
2023-01-30T03:00:34.543Z,68.10
2023-01-30T03:01:33.603Z,68.72
2023-01-30T03:02:33.590Z,68.30
2023-01-30T03:03:33.501Z,67.99
2023-01-30T03:04:33.520Z,68.38
2023-01-30T03:05:33.479Z,67.99
2023-01-30T03:06:33.470Z,67.79
2023-01-30T03:07:34.471Z,68.51
2023-01-30T03:08:33.466Z,67.79
2023-01-30T03:09:33.509Z,68.59
2023-01-30T03:10:33.458Z,68.48
2023-01-30T03:11:33.411Z,68.79
2023-01-30T03:12:33.400Z,68.72
2023-01-30T03:13:33.408Z,68.38
2023-01-30T03:14:34.379Z,67.99
2023-01-30T03:15:33.379Z,68.69
2023-01-30T03:16:33.403Z,68.59
2023-01-30T03:17:33.348Z,68.59
2023-01-30T03:18:33.343Z,68.65
2023-01-30T03:19:33.358Z,68.24
2023-01-30T03:20:34.320Z,68.03
2023-01-30T03:21:34.293Z,68.79
2023-01-30T03:22:33.297Z,69.10
2023-01-30T03:23:33.271Z,69.31
2023-01-30T03:24:33.283Z,69.62
2023-01-30T03:25:33.264Z,69.42
2023-01-30T03:26:33.312Z,69.42
2023-01-30T03:27:33.269Z,69.52
2023-01-30T03:28:34.227Z,69.07
2023-01-30T03:29:33.223Z,69.10
2023-01-30T03:30:33.225Z,69.31
2023-01-30T03:31:33.409Z,69.42
2023-01-30T03:32:33.188Z,69.31
2023-01-30T03:33:33.195Z,69.42
2023-01-30T03:34:33.179Z,69.79
2023-01-30T03:35:33.205Z,69.48
2023-01-30T03:36:33.137Z,69.38
2023-01-30T03:37:33.167Z,69.38
2023-01-30T03:38:33.124Z,69.59
2023-01-30T03:39:33.126Z,69.59
2023-01-30T03:40:33.109Z,69.59
2023-01-30T03:41:33.080Z,69.79
2023-01-30T03:42:33.074Z,70.21
2023-01-30T03:43:33.105Z,69.90
2023-01-30T03:44:33.060Z,70.00
2023-01-30T03:45:33.094Z,70.00
2023-01-30T03:46:33.016Z,70.10
2023-01-30T03:47:33.025Z,70.00
2023-01-30T03:48:33.014Z,69.90
2023-01-30T03:49:33.039Z,70.21
2023-01-30T03:50:34.002Z,70.00
2023-01-30T03:51:33.982Z,70.00
2023-01-30T03:52:32.981Z,69.87
2023-01-30T03:53:32.970Z,69.87
2023-01-30T03:54:32.949Z,69.66
2023-01-30T03:55:33.948Z,70.00
2023-01-30T03:56:32.950Z,70.42
2023-01-30T03:57:33.910Z,70.52
2023-01-30T03:58:32.923Z,70.31
2023-01-30T03:59:32.916Z,70.21
2023-01-30T04:00:32.883Z,70.42
2023-01-30T04:01:32.965Z,70.39
2023-01-30T04:02:32.941Z,70.18
2023-01-30T04:03:32.882Z,70.18
2023-01-30T04:04:32.828Z,70.18
2023-01-30T04:05:33.856Z,70.18
2023-01-30T04:06:33.192Z,69.87
2023-01-30T04:07:32.813Z,69.94
2023-01-30T04:08:33.812Z,69.73
2023-01-30T04:09:32.794Z,69.73
2023-01-30T04:10:32.755Z,69.56
2023-01-30T04:11:32.805Z,70.07
2023-01-30T04:12:32.739Z,70.07
2023-01-30T04:13:32.770Z,70.36
2023-01-30T04:14:32.740Z,70.15
2023-01-30T04:15:32.710Z,69.94
2023-01-30T04:16:32.826Z,69.84
2023-01-30T04:17:32.678Z,69.94
2023-01-30T04:18:32.703Z,69.73
2023-01-30T04:19:32.698Z,70.39
2023-01-30T04:20:32.659Z,70.36
2023-01-30T04:21:32.664Z,70.15
2023-01-30T04:22:33.632Z,70.15
2023-01-30T04:23:32.626Z,70.01
2023-01-30T04:24:32.625Z,69.80
2023-01-30T04:25:32.653Z,69.60
2023-01-30T04:26:33.681Z,69.94
2023-01-30T04:27:33.583Z,69.94
2023-01-30T04:28:32.618Z,69.63
2023-01-30T04:29:33.559Z,70.11
2023-01-30T04:30:33.554Z,69.84
2023-01-30T04:31:32.629Z,70.32
2023-01-30T04:32:33.536Z,69.80
2023-01-30T04:33:32.547Z,70.46
2023-01-30T04:34:32.611Z,69.94
2023-01-30T04:35:40.190Z,69.67
2023-01-30T04:36:32.499Z,70.01
2023-01-30T04:37:32.468Z,70.01
2023-01-30T04:38:32.455Z,70.56
2023-01-30T04:39:32.471Z,70.87
2023-01-30T04:40:33.449Z,71.18
2023-01-30T04:41:32.441Z,71.04
2023-01-30T04:42:32.424Z,71.08
2023-01-30T04:43:32.432Z,70.97
2023-01-30T04:44:32.410Z,70.94
2023-01-30T04:45:33.388Z,70.60
2023-01-30T04:46:32.388Z,71.04
2023-01-30T04:47:32.396Z,70.94
2023-01-30T04:48:32.357Z,70.81
2023-01-30T04:49:32.379Z,70.91
2023-01-30T04:50:33.348Z,70.70
2023-01-30T04:51:32.308Z,71.22
2023-01-30T04:52:32.336Z,70.84
2023-01-30T04:53:32.303Z,70.91
2023-01-30T04:54:32.303Z,70.81
2023-01-30T04:55:33.282Z,70.60
2023-01-30T04:56:33.269Z,71.22
2023-01-30T04:57:32.261Z,70.81
2023-01-30T04:58:32.309Z,70.70
2023-01-30T04:59:33.271Z,70.57
2023-01-30T05:00:32.248Z,70.36
2023-01-30T05:01:32.213Z,70.36
2023-01-30T05:02:33.186Z,70.29
2023-01-30T05:03:33.207Z,70.77
2023-01-30T05:04:32.223Z,70.60
2023-01-30T05:05:32.173Z,71.22
2023-01-30T05:06:32.185Z,71.33
2023-01-30T05:07:32.143Z,71.53
2023-01-30T05:08:32.204Z,71.43
2023-01-30T05:09:32.132Z,71.12
2023-01-30T05:10:32.118Z,71.43
2023-01-30T05:11:32.104Z,71.43
2023-01-30T05:12:32.101Z,71.43
2023-01-30T05:13:32.088Z,71.39
2023-01-30T05:14:32.068Z,71.19
2023-01-30T05:15:32.069Z,71.33
2023-01-30T05:16:32.059Z,70.98
2023-01-30T05:17:32.066Z,71.01
2023-01-30T05:18:33.033Z,71.70
2023-01-30T05:19:32.013Z,71.84
2023-01-30T05:20:33.029Z,71.53
2023-01-30T05:21:31.976Z,71.43
2023-01-30T05:22:32.031Z,71.70
2023-01-30T05:23:31.978Z,70.98
2023-01-30T05:24:31.958Z,71.19
2023-01-30T05:25:31.946Z,70.87
2023-01-30T05:26:31.985Z,70.87
2023-01-30T05:27:31.927Z,71.53
2023-01-30T05:28:31.934Z,71.50
2023-01-30T05:29:31.915Z,71.70
2023-01-30T05:30:31.949Z,72.56
2023-01-30T05:31:31.899Z,72.46
2023-01-30T05:32:31.863Z,72.25
2023-01-30T05:33:31.862Z,72.46
2023-01-30T05:34:32.879Z,72.43
2023-01-30T05:35:31.872Z,71.91
2023-01-30T05:36:31.837Z,72.02
2023-01-30T05:37:31.812Z,71.70
2023-01-30T05:38:31.821Z,71.36
2023-01-30T05:39:32.795Z,71.19
2023-01-30T05:40:32.832Z,71.39
2023-01-30T05:41:31.762Z,71.60
2023-01-30T05:42:31.748Z,71.70
2023-01-30T05:43:31.747Z,71.81
2023-01-30T05:44:32.748Z,72.02
2023-01-30T05:45:31.754Z,71.70
2023-01-30T05:46:31.759Z,71.50
2023-01-30T05:47:31.703Z,71.81
2023-01-30T05:48:31.706Z,72.43
2023-01-30T05:49:31.759Z,72.33
2023-01-30T05:50:31.681Z,71.50
2023-01-30T05:51:31.664Z,71.39
2023-01-30T05:52:31.695Z,72.02
2023-01-30T05:53:31.650Z,72.02
2023-01-30T05:54:31.628Z,72.12
2023-01-30T05:55:31.752Z,72.22
2023-01-30T05:56:31.598Z,72.85
2023-01-30T05:57:31.608Z,72.33
2023-01-30T05:58:31.626Z,71.98
2023-01-30T05:59:31.613Z,72.64
2023-01-30T06:00:31.561Z,72.53
2023-01-30T06:01:31.583Z,73.15
2023-01-30T06:02:31.584Z,72.91
2023-01-30T06:03:32.632Z,73.15
2023-01-30T06:04:31.538Z,73.46
2023-01-30T06:05:31.510Z,73.05
2023-01-30T06:06:31.501Z,73.15
2023-01-30T06:07:31.507Z,73.25
2023-01-30T06:08:31.499Z,72.64
2023-01-30T06:09:31.481Z,73.15
2023-01-30T06:10:31.486Z,73.22
2023-01-30T06:11:31.452Z,72.91
2023-01-30T06:12:31.427Z,73.25
2023-01-30T06:13:31.422Z,72.91
2023-01-30T06:14:31.457Z,72.91
2023-01-30T06:15:32.387Z,73.25
2023-01-30T06:16:31.521Z,72.60
2023-01-30T06:17:31.362Z,73.25
2023-01-30T06:18:31.385Z,73.15
2023-01-30T06:19:31.360Z,73.74
2023-01-30T06:20:32.358Z,73.43
2023-01-30T06:21:32.381Z,72.88
2023-01-30T06:22:32.316Z,73.33
2023-01-30T06:23:31.323Z,72.98
2023-01-30T06:24:31.328Z,73.22
2023-01-30T06:25:31.315Z,72.78
2023-01-30T06:26:31.322Z,72.91
2023-01-30T06:27:31.295Z,73.08
2023-01-30T06:28:31.282Z,73.29
2023-01-30T06:29:31.278Z,73.19
2023-01-30T06:30:31.330Z,73.60
2023-01-30T06:31:31.288Z,73.39
2023-01-30T06:32:32.241Z,73.02
2023-01-30T06:33:31.215Z,73.22
2023-01-30T06:34:31.232Z,73.33
2023-01-30T06:35:31.203Z,73.29
2023-01-30T06:36:31.223Z,73.43
2023-01-30T06:37:31.156Z,72.60
2023-01-30T06:38:31.203Z,73.22
2023-01-30T06:39:31.146Z,72.91
2023-01-30T06:40:31.151Z,73.43
2023-01-30T06:41:31.134Z,73.54
2023-01-30T06:42:31.111Z,73.71
2023-01-30T06:43:31.119Z,72.57
2023-01-30T06:44:32.108Z,73.60
2023-01-30T06:45:31.057Z,73.71
2023-01-30T06:46:32.136Z,73.19
2023-01-30T06:47:32.055Z,73.81
2023-01-30T06:48:32.029Z,73.50
2023-01-30T06:49:31.080Z,73.91
2023-01-30T06:50:31.049Z,73.71
2023-01-30T06:51:31.023Z,73.91
2023-01-30T06:52:30.981Z,73.91
2023-01-30T06:53:30.975Z,73.60
2023-01-30T06:54:31.012Z,73.91
2023-01-30T06:55:31.989Z,73.60
2023-01-30T06:56:31.983Z,74.02
2023-01-30T06:57:31.943Z,73.60
2023-01-30T06:58:30.951Z,73.84
2023-01-30T06:59:30.908Z,73.43
2023-01-30T07:00:31.044Z,73.22
2023-01-30T07:01:30.927Z,74.46
2023-01-30T07:02:30.895Z,73.29
2023-01-30T07:03:31.882Z,73.71
2023-01-30T07:04:31.919Z,73.94
2023-01-30T07:05:30.841Z,72.88
2023-01-30T07:06:30.851Z,74.02
2023-01-30T07:07:30.846Z,74.02
2023-01-30T07:08:30.843Z,73.19
2023-01-30T07:09:30.816Z,72.98
2023-01-30T07:10:30.792Z,73.81
2023-01-30T07:11:30.859Z,72.78
2023-01-30T07:12:30.827Z,73.50
2023-01-30T07:13:30.770Z,73.81
2023-01-30T07:14:30.771Z,74.12
2023-01-30T07:15:30.747Z,73.36
2023-01-30T07:16:30.836Z,73.91
2023-01-30T07:17:30.724Z,73.81
2023-01-30T07:18:30.728Z,73.81
2023-01-30T07:19:30.706Z,73.67
2023-01-30T07:20:30.737Z,73.39
2023-01-30T07:21:30.682Z,74.12
2023-01-30T07:22:30.684Z,74.22
2023-01-30T07:23:30.666Z,74.19
2023-01-30T07:24:31.658Z,74.12
2023-01-30T07:25:30.650Z,74.19
2023-01-30T07:26:30.664Z,74.02
2023-01-30T07:27:30.620Z,74.88
2023-01-30T07:28:30.617Z,74.77
2023-01-30T07:29:30.617Z,75.36
2023-01-30T07:30:30.808Z,75.36
2023-01-30T07:31:30.635Z,75.15
2023-01-30T07:32:30.601Z,75.15
2023-01-30T07:33:30.533Z,75.43
2023-01-30T07:34:31.539Z,74.95
2023-01-30T07:35:30.536Z,74.53
2023-01-30T07:36:30.516Z,74.60
2023-01-30T07:37:30.503Z,74.43
2023-01-30T07:38:31.518Z,74.95
2023-01-30T07:39:30.519Z,74.74
2023-01-30T07:40:30.480Z,74.84
2023-01-30T07:41:30.471Z,74.91
2023-01-30T07:42:30.454Z,74.60
2023-01-30T07:43:30.441Z,74.71
2023-01-30T07:44:30.436Z,74.71
2023-01-30T07:45:30.462Z,74.50
2023-01-30T07:46:30.412Z,74.71
2023-01-30T07:47:30.403Z,74.77
2023-01-30T07:48:30.395Z,75.01
2023-01-30T07:49:30.366Z,74.91
2023-01-30T07:50:30.363Z,74.57
2023-01-30T07:51:30.371Z,74.60
2023-01-30T07:52:30.339Z,74.91
2023-01-30T07:53:30.329Z,75.26
2023-01-30T07:54:30.351Z,75.01
2023-01-30T07:55:30.292Z,75.43
2023-01-30T07:56:31.322Z,75.26
2023-01-30T07:57:31.297Z,75.12
2023-01-30T07:58:30.940Z,74.81
2023-01-30T07:59:30.253Z,74.46
2023-01-30T08:00:30.287Z,74.81
2023-01-30T08:01:30.267Z,74.60
2023-01-30T08:02:30.304Z,74.88
2023-01-30T08:03:30.354Z,73.95
2023-01-30T08:04:30.258Z,74.15
2023-01-30T08:05:31.209Z,74.05
2023-01-30T08:06:30.216Z,74.02
2023-01-30T08:07:30.204Z,73.33
2023-01-30T08:08:30.151Z,73.74
2023-01-30T08:09:31.180Z,73.95
2023-01-30T08:10:30.148Z,73.29
2023-01-30T08:11:30.125Z,73.60
2023-01-30T08:12:31.117Z,73.85
2023-01-30T08:13:30.139Z,73.67
2023-01-30T08:14:30.156Z,74.15
2023-01-30T08:15:30.146Z,72.99
2023-01-30T08:16:30.103Z,73.60
2023-01-30T08:17:30.091Z,73.81
2023-01-30T08:18:30.125Z,73.60
2023-01-30T08:19:30.053Z,73.91
2023-01-30T08:20:30.062Z,73.71
2023-01-30T08:21:30.039Z,73.71
2023-01-30T08:22:30.016Z,73.91
2023-01-30T08:23:30.022Z,73.39
2023-01-30T08:24:30.014Z,73.71
2023-01-30T08:25:29.984Z,73.39
2023-01-30T08:26:30.062Z,73.19
2023-01-30T08:27:29.961Z,73.29
2023-01-30T08:28:30.963Z,73.29
2023-01-30T08:29:29.955Z,72.67
2023-01-30T08:30:29.972Z,73.81
2023-01-30T08:31:29.963Z,72.88
2023-01-30T08:32:29.936Z,72.85
2023-01-30T08:33:29.918Z,72.57
2023-01-30T08:34:29.914Z,73.50
2023-01-30T08:35:29.891Z,73.50
2023-01-30T08:36:29.848Z,73.74
2023-01-30T08:37:29.860Z,73.50
2023-01-30T08:38:29.849Z,73.91
2023-01-30T08:39:29.832Z,73.29
2023-01-30T08:40:29.807Z,73.29
2023-01-30T08:41:30.832Z,72.99
2023-01-30T08:42:29.872Z,73.50
2023-01-30T08:43:29.828Z,73.05
2023-01-30T08:44:29.768Z,73.05
2023-01-30T08:45:30.769Z,72.95
2023-01-30T08:46:29.922Z,72.78
2023-01-30T08:47:29.746Z,73.05
2023-01-30T08:48:36.713Z,72.95
2023-01-30T08:49:30.751Z,72.95
2023-01-30T08:50:29.711Z,72.95
2023-01-30T08:51:29.727Z,73.09
2023-01-30T08:52:30.717Z,73.26
2023-01-30T08:53:29.684Z,72.57
2023-01-30T08:54:31.371Z,73.71
2023-01-30T08:55:30.673Z,73.60
2023-01-30T08:56:29.631Z,73.09
2023-01-30T08:57:29.632Z,73.26
2023-01-30T08:58:29.625Z,73.16
2023-01-30T08:59:29.631Z,72.54
2023-01-30T09:00:29.638Z,72.64
2023-01-30T09:01:29.705Z,72.78
2023-01-30T09:02:29.671Z,73.19
2023-01-30T09:03:29.565Z,73.60
2023-01-30T09:04:29.829Z,73.19
2023-01-30T09:05:29.560Z,73.26
2023-01-30T09:06:30.543Z,73.16
2023-01-30T09:07:29.528Z,72.74
2023-01-30T09:08:29.532Z,72.54
2023-01-30T09:09:29.513Z,72.95
2023-01-30T09:10:29.492Z,72.99
2023-01-30T09:11:29.504Z,73.26
2023-01-30T09:12:29.528Z,72.85
2023-01-30T09:13:30.480Z,73.05
2023-01-30T09:14:29.464Z,73.16
2023-01-30T09:15:29.455Z,73.09
2023-01-30T09:16:29.480Z,73.77
2023-01-30T09:17:29.421Z,72.78
2023-01-30T09:18:29.484Z,73.26
2023-01-30T09:19:29.408Z,73.36
2023-01-30T09:20:29.417Z,73.39
2023-01-30T09:21:29.417Z,73.39
2023-01-30T09:22:29.364Z,72.95
2023-01-30T09:23:29.390Z,72.85
2023-01-30T09:24:30.373Z,72.19
2023-01-30T09:25:29.338Z,71.78
2023-01-30T09:26:29.411Z,72.19
2023-01-30T09:27:30.309Z,72.09
2023-01-30T09:28:29.312Z,71.89
2023-01-30T09:29:29.333Z,71.85
2023-01-30T09:30:30.521Z,71.34
2023-01-30T09:31:29.352Z,71.51
2023-01-30T09:32:30.261Z,70.89
2023-01-30T09:33:29.237Z,70.82
2023-01-30T09:34:29.254Z,70.96
2023-01-30T09:35:29.221Z,71.78
2023-01-30T09:36:29.252Z,71.78
2023-01-30T09:37:29.223Z,71.23
2023-01-30T09:38:29.209Z,71.37
2023-01-30T09:39:29.196Z,71.55
2023-01-30T09:40:29.188Z,71.34
2023-01-30T09:41:29.162Z,70.92
2023-01-30T09:42:29.237Z,70.68
2023-01-30T09:43:30.145Z,70.72
2023-01-30T09:44:30.140Z,70.82
2023-01-30T09:45:30.148Z,71.00
2023-01-30T09:46:29.162Z,70.58
2023-01-30T09:47:29.128Z,70.82
2023-01-30T09:48:29.077Z,70.75
2023-01-30T09:49:29.099Z,71.03
2023-01-30T09:50:29.077Z,71.13
2023-01-30T09:51:30.091Z,71.34
2023-01-30T09:52:30.099Z,71.47
2023-01-30T09:53:29.038Z,70.92
2023-01-30T09:54:29.041Z,72.06
2023-01-30T09:55:29.030Z,71.23
2023-01-30T09:56:29.043Z,71.26
2023-01-30T09:57:28.992Z,71.34
2023-01-30T09:58:29.004Z,71.23
2023-01-30T09:59:28.996Z,71.03
2023-01-30T10:00:29.974Z,71.13
2023-01-30T10:01:29.938Z,71.30
2023-01-30T10:02:28.931Z,71.55
2023-01-30T10:03:28.997Z,71.20
2023-01-30T10:04:29.014Z,71.13
2023-01-30T10:05:28.890Z,71.55
2023-01-30T10:06:28.907Z,71.23
2023-01-30T10:07:28.968Z,70.72
2023-01-30T10:08:28.915Z,71.64
2023-01-30T10:09:28.882Z,71.85
2023-01-30T10:10:28.870Z,72.09
2023-01-30T10:11:28.831Z,72.50
2023-01-30T10:12:29.899Z,72.40
2023-01-30T10:13:28.839Z,71.99
2023-01-30T10:14:28.822Z,72.27
2023-01-30T10:15:28.812Z,72.30
2023-01-30T10:16:28.803Z,72.61
2023-01-30T10:17:30.853Z,72.71
2023-01-30T10:18:28.781Z,73.02
2023-01-30T10:19:35.596Z,72.67
2023-01-30T10:20:29.756Z,72.37
2023-01-30T10:21:28.762Z,72.58
2023-01-30T10:22:28.756Z,72.37
2023-01-30T10:23:28.726Z,72.27
2023-01-30T10:24:28.721Z,71.85
2023-01-30T10:25:28.753Z,71.89
2023-01-30T10:26:28.731Z,72.50
2023-01-30T10:27:28.693Z,73.22
2023-01-30T10:28:28.643Z,72.71
2023-01-30T10:29:29.651Z,72.92
2023-01-30T10:30:28.756Z,73.12
2023-01-30T10:31:28.703Z,73.05
2023-01-30T10:32:28.605Z,73.02
2023-01-30T10:33:29.624Z,72.61
2023-01-30T10:34:28.607Z,72.81
2023-01-30T10:35:28.611Z,72.19
2023-01-30T10:36:28.585Z,73.02
2023-01-30T10:37:28.578Z,73.22
2023-01-30T10:38:28.541Z,72.71
2023-01-30T10:39:28.555Z,73.26
2023-01-30T10:40:28.548Z,72.92
2023-01-30T10:41:28.547Z,72.74
2023-01-30T10:42:28.553Z,73.02
2023-01-30T10:43:28.531Z,72.81
2023-01-30T10:44:28.500Z,72.92
2023-01-30T10:45:28.516Z,72.30
2023-01-30T10:46:28.517Z,72.61
2023-01-30T10:47:34.723Z,72.88
2023-01-30T10:48:42.532Z,72.40
2023-01-30T10:49:29.439Z,73.43
2023-01-30T10:50:28.429Z,72.58
2023-01-30T10:51:29.477Z,72.58
2023-01-30T10:52:28.399Z,72.27
2023-01-30T10:53:28.423Z,72.50
2023-01-30T10:54:29.399Z,72.50
2023-01-30T10:55:37.336Z,72.81
2023-01-30T10:56:29.409Z,72.71
2023-01-30T10:57:28.366Z,72.92
2023-01-30T10:58:28.378Z,72.99
2023-01-30T10:59:28.345Z,72.16
2023-01-30T11:00:29.332Z,72.58
2023-01-30T11:01:28.321Z,72.06
2023-01-30T11:02:28.394Z,71.75
2023-01-30T11:03:29.314Z,71.85
2023-01-30T11:04:28.293Z,72.50
2023-01-30T11:05:28.267Z,72.81
2023-01-30T11:06:28.274Z,72.37
2023-01-30T11:07:28.229Z,71.75
2023-01-30T11:08:28.227Z,72.30
2023-01-30T11:09:28.227Z,72.92
2023-01-30T11:10:29.229Z,72.40
2023-01-30T11:11:29.218Z,72.81
2023-01-30T11:12:28.215Z,73.22
2023-01-30T11:13:28.178Z,72.58
2023-01-30T11:14:28.188Z,72.71
2023-01-30T11:15:28.172Z,72.71
2023-01-30T11:16:28.199Z,73.19
2023-01-30T11:17:28.193Z,72.67
2023-01-30T11:19:29.123Z,72.67
2023-01-30T11:20:28.117Z,72.88
2023-01-30T11:21:38.465Z,72.58
2023-01-30T11:22:29.110Z,72.03
2023-01-30T11:23:28.056Z,71.92
2023-01-30T11:24:28.070Z,71.82
2023-01-30T11:25:29.058Z,71.89
2023-01-30T11:26:37.814Z,71.69
2023-01-30T11:27:29.067Z,71.78
2023-01-30T11:28:28.040Z,71.20
2023-01-30T11:29:28.017Z,71.10
2023-01-30T11:30:28.009Z,70.96
2023-01-30T11:31:40.298Z,71.61
2023-01-30T11:32:29.078Z,71.85
2023-01-30T11:33:27.989Z,72.67
2023-01-30T11:34:27.950Z,72.54
2023-01-30T11:35:27.958Z,72.33
2023-01-30T11:36:27.942Z,72.23
2023-01-30T11:37:27.941Z,71.89
2023-01-30T11:38:27.922Z,71.37
2023-01-30T11:39:27.919Z,70.52
2023-01-30T11:40:27.920Z,70.52
2023-01-30T11:41:28.875Z,70.59
2023-01-30T11:42:27.883Z,70.48
2023-01-30T11:43:27.849Z,70.69
2023-01-30T11:44:27.870Z,70.14
2023-01-30T11:45:27.888Z,69.97
2023-01-30T11:46:27.806Z,70.07
2023-01-30T11:47:27.811Z,69.76
2023-01-30T11:48:33.910Z,69.94
2023-01-30T11:49:46.640Z,69.97
2023-01-30T11:50:30.404Z,70.28
2023-01-30T11:51:27.760Z,70.59
2023-01-30T11:52:27.753Z,70.38
2023-01-30T11:53:27.745Z,70.72
2023-01-30T11:54:27.752Z,70.62
2023-01-30T11:55:27.721Z,70.72
2023-01-30T11:56:27.751Z,70.72
2023-01-30T11:57:27.717Z,71.14
2023-01-30T11:58:27.684Z,70.69
2023-01-30T11:59:28.675Z,70.62
2023-01-30T12:00:27.693Z,71.03
2023-01-30T12:01:27.673Z,70.62
2023-01-30T12:02:27.713Z,70.52
2023-01-30T12:03:27.662Z,70.72
2023-01-30T12:04:27.631Z,70.72
2023-01-30T12:05:27.623Z,70.52
2023-01-30T12:06:27.591Z,70.96
2023-01-30T12:07:27.663Z,71.03
2023-01-30T12:08:41.058Z,70.96
2023-01-30T12:09:28.587Z,71.44
2023-01-30T12:10:27.576Z,71.34
2023-01-30T12:11:27.571Z,71.06
2023-01-30T12:12:27.574Z,70.83
2023-01-30T12:13:27.538Z,71.00
2023-01-30T12:14:28.518Z,70.93
2023-01-30T12:15:27.500Z,70.72
2023-01-30T12:16:27.575Z,71.14
2023-01-30T12:17:27.523Z,70.62
2023-01-30T12:18:27.464Z,71.27
2023-01-30T12:19:27.476Z,71.27
2023-01-30T12:20:27.475Z,70.93
2023-01-30T12:21:28.479Z,70.83
2023-01-30T12:22:27.461Z,70.72
2023-01-30T12:23:27.450Z,70.52
2023-01-30T12:24:27.399Z,70.52
2023-01-30T12:25:27.415Z,70.28
2023-01-30T12:26:27.438Z,70.28
2023-01-30T12:27:27.429Z,70.18
2023-01-30T12:28:27.456Z,69.66
2023-01-30T12:29:27.345Z,69.87
2023-01-30T12:30:27.335Z,70.07
2023-01-30T12:31:28.342Z,70.62
2023-01-30T12:32:27.459Z,70.62
2023-01-30T12:33:27.361Z,70.62
2023-01-30T12:34:27.789Z,70.42
2023-01-30T12:35:27.271Z,70.93
2023-01-30T12:36:28.267Z,70.83
2023-01-30T12:37:27.298Z,70.83
2023-01-30T12:38:27.264Z,71.03
2023-01-30T12:39:27.281Z,71.00
2023-01-30T12:40:27.249Z,70.38
2023-01-30T12:41:27.210Z,70.38
2023-01-30T12:42:27.222Z,70.14
2023-01-30T12:43:27.217Z,69.84
2023-01-30T12:44:27.185Z,70.18
2023-01-30T12:45:28.316Z,70.14
2023-01-30T12:46:27.262Z,69.84
2023-01-30T12:47:28.153Z,69.73
2023-01-30T12:48:27.163Z,69.97
2023-01-30T12:49:27.160Z,70.38
2023-01-30T12:50:27.118Z,70.28
2023-01-30T12:51:27.155Z,70.38
2023-01-30T12:52:28.126Z,70.28
2023-01-30T12:53:28.073Z,70.69